Airfield :
LOGIN :

Register | Disclaimer

   EN    FR    IT 

 










Legend :    VFR   Marginal VFR   IFR   Intensive IFR   Very Intensive IFR
Visi :
Ceiling :
>= 8 km
>= 3000ft
5 to 8 km
1000 to 3000 ft
1500m to 5 km
500 to 1000 ft
800 to 1500m
200 to 500 ft
< 800m
< 200 ft
Symbols :   Thunderstorms  Fog  Heavy snow  Heavy precipitations  Wind > 20 kt
SIGMETs :     Misc.  Thunderstorms  Icing  Turbulence  Mountain Waves  Volcanic Ashes






- Airport Elevation : 291 ft
- IATA code : ORY


LFPO - Paris-Orly

CURRENT METAR :
  • 100400Z 22003KT CAVOK 01/00 Q1028 NOSIG

EXPIRED METARs :
  • 100330Z 24003KT CAVOK M00/M01 Q1028 NOSIG
  • 100300Z 22004KT CAVOK 00/M00 Q1028 NOSIG
  • 100230Z 22002KT CAVOK 00/M01 Q1028 NOSIG
  • 100200Z 26003KT CAVOK 01/M00 Q1028 NOSIG
  • 100130Z 25005KT CAVOK 02/00 Q1027 NOSIG

TAF TAF LFPO
Valid from the 10 at 00:00 until the 11 at 06:00 UTC


092300Z 1000/1106 28005KT CAVOK
BECMG 1010/1012 18010KT
TEMPO 1015/1024 20015G25KT
TEMPO 1100/1106 4000 RA BKN008
ATIS : +33 1 49 75 65 80



MET'MAP, your aeronautical weather chart ! - Copyright ORBIFLY December 2007 - Disclaimer

ORBIFLY MET'MAP TEAM :

Programming & Development : Alexandra Zaïnal
Concept & original design : Baudouin d'Aumeries
Assistance for programming : Marc-Olivier Méhu
Technical & hardware support : Manuel Goepfert

Contact : metmap@orbifly.com




SOURCES & CREDITS :

   NOAA